sensor_id;sensor_type;location;lat;lon;timestamp;temperature;humidity
35680;DHT22;21803;53.586;10.040;2022-09-09T00:01:53;25.70;45.10
35680;DHT22;21803;53.586;10.040;2022-09-09T00:07:15;25.60;45.00
35680;DHT22;21803;53.586;10.040;2022-09-09T00:09:47;25.70;45.80
35680;DHT22;21803;53.586;10.040;2022-09-09T00:12:35;25.80;45.20
35680;DHT22;21803;53.586;10.040;2022-09-09T00:15:12;25.70;45.10
35680;DHT22;21803;53.586;10.040;2022-09-09T00:18:05;25.70;45.10
35680;DHT22;21803;53.586;10.040;2022-09-09T00:23:14;25.70;45.20
35680;DHT22;21803;53.586;10.040;2022-09-09T00:25:49;25.70;45.20
35680;DHT22;21803;53.586;10.040;2022-09-09T00:28:24;25.70;45.20
35680;DHT22;21803;53.586;10.040;2022-09-09T00:30:51;25.70;45.30
35680;DHT22;21803;53.586;10.040;2022-09-09T00:33:20;25.70;45.20
35680;DHT22;21803;53.586;10.040;2022-09-09T00:35:58;25.70;45.20
35680;DHT22;21803;53.586;10.040;2022-09-09T00:38:39;25.70;45.30
35680;DHT22;21803;53.586;10.040;2022-09-09T00:50:03;25.70;45.30
35680;DHT22;21803;53.586;10.040;2022-09-09T00:52:36;25.70;45.30
35680;DHT22;21803;53.586;10.040;2022-09-09T00:55:25;25.70;45.30
35680;DHT22;21803;53.586;10.040;2022-09-09T00:57:53;25.70;45.30
35680;DHT22;21803;53.586;10.040;2022-09-09T01:00:20;25.70;45.30
35680;DHT22;21803;53.586;10.040;2022-09-09T01:03:15;25.70;45.30
35680;DHT22;21803;53.586;10.040;2022-09-09T01:08:51;25.70;45.30
35680;DHT22;21803;53.586;10.040;2022-09-09T01:11:28;25.70;45.40
35680;DHT22;21803;53.586;10.040;2022-09-09T01:14:10;25.70;45.40
35680;DHT22;21803;53.586;10.040;2022-09-09T01:16:38;25.60;45.30
35680;DHT22;21803;53.586;10.040;2022-09-09T01:19:08;25.70;45.40
35680;DHT22;21803;53.586;10.040;2022-09-09T01:22:15;25.70;45.40
35680;DHT22;21803;53.586;10.040;2022-09-09T01:25:11;25.70;45.40
35680;DHT22;21803;53.586;10.040;2022-09-09T01:27:42;25.70;45.40
35680;DHT22;21803;53.586;10.040;2022-09-09T01:30:13;25.70;45.40
35680;DHT22;21803;53.586;10.040;2022-09-09T01:32:43;25.70;45.40
35680;DHT22;21803;53.586;10.040;2022-09-09T01:35:35;25.70;45.40
35680;DHT22;21803;53.586;10.040;2022-09-09T01:38:02;25.70;45.40
35680;DHT22;21803;53.586;10.040;2022-09-09T01:40:28;25.70;45.40
35680;DHT22;21803;53.586;10.040;2022-09-09T01:42:54;25.70;45.40
35680;DHT22;21803;53.586;10.040;2022-09-09T01:45:21;25.80;45.50
35680;DHT22;21803;53.586;10.040;2022-09-09T01:47:47;25.70;45.40
35680;DHT22;21803;53.586;10.040;2022-09-09T01:50:15;25.70;45.40
35680;DHT22;21803;53.586;10.040;2022-09-09T01:52:43;25.70;45.40
35680;DHT22;21803;53.586;10.040;2022-09-09T01:55:09;25.70;45.40
35680;DHT22;21803;53.586;10.040;2022-09-09T01:57:48;25.70;45.40
35680;DHT22;21803;53.586;10.040;2022-09-09T02:00:16;25.70;45.40
35680;DHT22;21803;53.586;10.040;2022-09-09T02:05:41;25.70;45.40
35680;DHT22;21803;53.586;10.040;2022-09-09T02:08:15;25.70;45.40
35680;DHT22;21803;53.586;10.040;2022-09-09T02:10:50;25.80;45.50
35680;DHT22;21803;53.586;10.040;2022-09-09T02:13:19;25.70;45.40
35680;DHT22;21803;53.586;10.040;2022-09-09T02:18:48;25.60;45.40
35680;DHT22;21803;53.586;10.040;2022-09-09T02:21:16;25.70;45.50
35680;DHT22;21803;53.586;10.040;2022-09-09T02:23:43;25.70;45.40
35680;DHT22;21803;53.586;10.040;2022-09-09T02:26:12;25.70;45.40
35680;DHT22;21803;53.586;10.040;2022-09-09T02:28:40;25.60;45.40
35680;DHT22;21803;53.586;10.040;2022-09-09T02:31:06;25.70;45.50
35680;DHT22;21803;53.586;10.040;2022-09-09T02:33:36;25.70;45.40
35680;DHT22;21803;53.586;10.040;2022-09-09T02:36:03;25.70;45.40
35680;DHT22;21803;53.586;10.040;2022-09-09T02:38:35;25.70;45.40
35680;DHT22;21803;53.586;10.040;2022-09-09T02:41:01;25.70;45.40
35680;DHT22;21803;53.586;10.040;2022-09-09T02:43:34;25.60;45.40
35680;DHT22;21803;53.586;10.040;2022-09-09T02:49:00;25.70;45.40
35680;DHT22;21803;53.586;10.040;2022-09-09T02:51:52;25.70;45.40
35680;DHT22;21803;53.586;10.040;2022-09-09T02:54:30;25.70;45.40
35680;DHT22;21803;53.586;10.040;2022-09-09T02:57:01;25.70;45.40
35680;DHT22;21803;53.586;10.040;2022-09-09T02:59:28;25.70;45.40
35680;DHT22;21803;53.586;10.040;2022-09-09T03:01:54;25.70;45.50
35680;DHT22;21803;53.586;10.040;2022-09-09T03:04:20;25.70;45.40
35680;DHT22;21803;53.586;10.040;2022-09-09T03:06:45;25.70;45.40
35680;DHT22;21803;53.586;10.040;2022-09-09T03:09:11;25.70;45.40
35680;DHT22;21803;53.586;10.040;2022-09-09T03:11:37;25.70;45.40
35680;DHT22;21803;53.586;10.040;2022-09-09T03:14:03;25.60;45.40
35680;DHT22;21803;53.586;10.040;2022-09-09T03:16:29;25.70;45.40
35680;DHT22;21803;53.586;10.040;2022-09-09T03:18:55;25.70;45.40
35680;DHT22;21803;53.586;10.040;2022-09-09T03:21:21;25.70;45.40
35680;DHT22;21803;53.586;10.040;2022-09-09T03:23:47;25.70;45.40
35680;DHT22;21803;53.586;10.040;2022-09-09T03:26:13;25.70;45.40
35680;DHT22;21803;53.586;10.040;2022-09-09T03:28:40;25.70;45.40
35680;DHT22;21803;53.586;10.040;2022-09-09T03:31:06;25.70;45.40
35680;DHT22;21803;53.586;10.040;2022-09-09T03:33:36;25.70;45.40
35680;DHT22;21803;53.586;10.040;2022-09-09T03:36:03;25.70;46.10
35680;DHT22;21803;53.586;10.040;2022-09-09T03:38:28;25.70;45.40
35680;DHT22;21803;53.586;10.040;2022-09-09T03:40:55;25.60;45.40
35680;DHT22;21803;53.586;10.040;2022-09-09T03:43:25;25.70;45.40
35680;DHT22;21803;53.586;10.040;2022-09-09T03:45:51;25.60;45.40
35680;DHT22;21803;53.586;10.040;2022-09-09T03:48:18;25.70;45.60
35680;DHT22;21803;53.586;10.040;2022-09-09T03:50:48;25.70;45.40
35680;DHT22;21803;53.586;10.040;2022-09-09T03:53:15;25.60;45.40
35680;DHT22;21803;53.586;10.040;2022-09-09T03:55:49;25.70;45.40
35680;DHT22;21803;53.586;10.040;2022-09-09T03:58:16;25.60;45.40
35680;DHT22;21803;53.586;10.040;2022-09-09T04:00:52;25.70;45.40
35680;DHT22;21803;53.586;10.040;2022-09-09T04:03:18;25.60;45.40
35680;DHT22;21803;53.586;10.040;2022-09-09T04:05:44;25.60;45.40
35680;DHT22;21803;53.586;10.040;2022-09-09T04:08:09;25.60;45.40
35680;DHT22;21803;53.586;10.040;2022-09-09T04:10:35;25.70;45.40
35680;DHT22;21803;53.586;10.040;2022-09-09T04:13:03;25.70;45.40
35680;DHT22;21803;53.586;10.040;2022-09-09T04:15:29;25.60;45.40
35680;DHT22;21803;53.586;10.040;2022-09-09T04:17:54;25.60;45.40
35680;DHT22;21803;53.586;10.040;2022-09-09T04:20:20;25.60;45.30
35680;DHT22;21803;53.586;10.040;2022-09-09T04:22:47;25.60;45.40
35680;DHT22;21803;53.586;10.040;2022-09-09T04:25:13;25.60;45.40
35680;DHT22;21803;53.586;10.040;2022-09-09T04:27:38;25.60;45.40
35680;DHT22;21803;53.586;10.040;2022-09-09T04:30:04;25.70;45.40
35680;DHT22;21803;53.586;10.040;2022-09-09T04:32:32;25.60;45.30
35680;DHT22;21803;53.586;10.040;2022-09-09T04:34:58;25.60;45.90
35680;DHT22;21803;53.586;10.040;2022-09-09T04:37:23;25.70;45.40
35680;DHT22;21803;53.586;10.040;2022-09-09T04:39:50;25.70;45.40
35680;DHT22;21803;53.586;10.040;2022-09-09T04:42:16;25.60;45.30
35680;DHT22;21803;53.586;10.040;2022-09-09T04:44:43;25.60;45.40
35680;DHT22;21803;53.586;10.040;2022-09-09T04:47:09;25.60;45.30
35680;DHT22;21803;53.586;10.040;2022-09-09T04:49:35;25.60;45.30
35680;DHT22;21803;53.586;10.040;2022-09-09T04:52:02;25.70;45.40
35680;DHT22;21803;53.586;10.040;2022-09-09T04:54:28;25.60;45.30
35680;DHT22;21803;53.586;10.040;2022-09-09T04:56:53;25.60;45.30
35680;DHT22;21803;53.586;10.040;2022-09-09T04:59:20;25.60;45.30
35680;DHT22;21803;53.586;10.040;2022-09-09T05:01:47;25.60;45.90
35680;DHT22;21803;53.586;10.040;2022-09-09T05:04:12;25.60;45.30
35680;DHT22;21803;53.586;10.040;2022-09-09T05:06:39;25.60;45.30
35680;DHT22;21803;53.586;10.040;2022-09-09T05:09:05;25.60;45.30
35680;DHT22;21803;53.586;10.040;2022-09-09T05:11:32;25.60;46.00
35680;DHT22;21803;53.586;10.040;2022-09-09T05:13:57;25.50;45.90
35680;DHT22;21803;53.586;10.040;2022-09-09T05:16:24;25.60;45.30
35680;DHT22;21803;53.586;10.040;2022-09-09T05:18:50;25.60;45.30
35680;DHT22;21803;53.586;10.040;2022-09-09T05:21:20;25.60;45.30
35680;DHT22;21803;53.586;10.040;2022-09-09T05:23:46;25.60;45.30
35680;DHT22;21803;53.586;10.040;2022-09-09T05:26:14;25.50;45.30
35680;DHT22;21803;53.586;10.040;2022-09-09T05:28:40;25.60;45.30
35680;DHT22;21803;53.586;10.040;2022-09-09T05:31:07;25.60;45.30
35680;DHT22;21803;53.586;10.040;2022-09-09T05:33:34;25.60;45.30
35680;DHT22;21803;53.586;10.040;2022-09-09T05:36:05;25.60;45.30
35680;DHT22;21803;53.586;10.040;2022-09-09T05:38:33;25.60;45.30
35680;DHT22;21803;53.586;10.040;2022-09-09T05:40:59;25.50;45.20
35680;DHT22;21803;53.586;10.040;2022-09-09T05:43:26;25.60;45.30
35680;DHT22;21803;53.586;10.040;2022-09-09T05:48:31;25.60;45.10
35680;DHT22;21803;53.586;10.040;2022-09-09T05:50:58;25.70;45.10
35680;DHT22;21803;53.586;10.040;2022-09-09T05:53:25;25.80;45.20
35680;DHT22;21803;53.586;10.040;2022-09-09T05:55:50;25.80;45.00
35680;DHT22;21803;53.586;10.040;2022-09-09T05:58:22;25.80;45.00
35680;DHT22;21803;53.586;10.040;2022-09-09T06:00:49;25.70;44.90
35680;DHT22;21803;53.586;10.040;2022-09-09T06:03:15;25.70;44.90
35680;DHT22;21803;53.586;10.040;2022-09-09T06:05:42;25.80;45.00
35680;DHT22;21803;53.586;10.040;2022-09-09T06:08:07;25.80;45.00
35680;DHT22;21803;53.586;10.040;2022-09-09T06:10:33;25.80;45.00
35680;DHT22;21803;53.586;10.040;2022-09-09T06:12:59;25.80;45.00
35680;DHT22;21803;53.586;10.040;2022-09-09T06:15:25;25.80;45.00
35680;DHT22;21803;53.586;10.040;2022-09-09T06:17:55;25.70;45.00
35680;DHT22;21803;53.586;10.040;2022-09-09T06:20:21;25.70;45.00
35680;DHT22;21803;53.586;10.040;2022-09-09T06:22:47;25.80;45.00
35680;DHT22;21803;53.586;10.040;2022-09-09T06:25:14;25.80;45.10
35680;DHT22;21803;53.586;10.040;2022-09-09T06:27:39;25.70;45.00
35680;DHT22;21803;53.586;10.040;2022-09-09T06:30:06;25.70;45.10
35680;DHT22;21803;53.586;10.040;2022-09-09T06:32:33;25.70;45.10
35680;DHT22;21803;53.586;10.040;2022-09-09T06:34:59;25.70;45.10
35680;DHT22;21803;53.586;10.040;2022-09-09T06:37:26;25.70;45.10
35680;DHT22;21803;53.586;10.040;2022-09-09T06:39:52;25.70;45.20
35680;DHT22;21803;53.586;10.040;2022-09-09T06:42:19;25.70;45.20
35680;DHT22;21803;53.586;10.040;2022-09-09T06:44:45;25.70;45.20
35680;DHT22;21803;53.586;10.040;2022-09-09T06:47:11;25.70;45.20
35680;DHT22;21803;53.586;10.040;2022-09-09T06:49:36;25.80;45.30
35680;DHT22;21803;53.586;10.040;2022-09-09T06:52:01;25.70;45.20
35680;DHT22;21803;53.586;10.040;2022-09-09T06:54:27;25.70;45.20
35680;DHT22;21803;53.586;10.040;2022-09-09T06:56:53;25.70;45.30
35680;DHT22;21803;53.586;10.040;2022-09-09T06:59:18;25.70;45.20
35680;DHT22;21803;53.586;10.040;2022-09-09T07:01:44;25.70;45.20
35680;DHT22;21803;53.586;10.040;2022-09-09T07:04:10;25.80;45.30
35680;DHT22;21803;53.586;10.040;2022-09-09T07:06:41;25.70;45.30
35680;DHT22;21803;53.586;10.040;2022-09-09T07:09:13;25.80;45.30
35680;DHT22;21803;53.586;10.040;2022-09-09T07:11:41;25.70;45.30
35680;DHT22;21803;53.586;10.040;2022-09-09T07:14:07;25.70;45.30
35680;DHT22;21803;53.586;10.040;2022-09-09T07:16:33;25.60;45.20
35680;DHT22;21803;53.586;10.040;2022-09-09T07:19:02;25.70;45.30
35680;DHT22;21803;53.586;10.040;2022-09-09T07:21:29;25.80;45.30
35680;DHT22;21803;53.586;10.040;2022-09-09T07:23:55;25.70;45.20
35680;DHT22;21803;53.586;10.040;2022-09-09T07:26:26;25.70;45.30
35680;DHT22;21803;53.586;10.040;2022-09-09T07:28:52;25.70;45.30
35680;DHT22;21803;53.586;10.040;2022-09-09T07:31:40;25.70;45.30
35680;DHT22;21803;53.586;10.040;2022-09-09T07:34:06;25.70;45.30
35680;DHT22;21803;53.586;10.040;2022-09-09T07:36:37;25.70;45.30
35680;DHT22;21803;53.586;10.040;2022-09-09T07:39:07;25.70;45.30
35680;DHT22;21803;53.586;10.040;2022-09-09T07:41:39;25.80;45.40
35680;DHT22;21803;53.586;10.040;2022-09-09T07:44:16;25.60;45.30
35680;DHT22;21803;53.586;10.040;2022-09-09T07:46:43;25.70;45.30
35680;DHT22;21803;53.586;10.040;2022-09-09T07:49:10;25.70;45.30
35680;DHT22;21803;53.586;10.040;2022-09-09T07:51:38;25.70;45.30
35680;DHT22;21803;53.586;10.040;2022-09-09T07:54:06;25.70;45.30
35680;DHT22;21803;53.586;10.040;2022-09-09T07:56:33;25.80;45.40
35680;DHT22;21803;53.586;10.040;2022-09-09T07:58:59;25.70;45.30
35680;DHT22;21803;53.586;10.040;2022-09-09T08:01:34;25.80;45.40
35680;DHT22;21803;53.586;10.040;2022-09-09T08:04:04;25.70;45.30
35680;DHT22;21803;53.586;10.040;2022-09-09T08:06:41;25.70;45.30
35680;DHT22;21803;53.586;10.040;2022-09-09T08:09:08;25.70;45.30
35680;DHT22;21803;53.586;10.040;2022-09-09T08:11:34;25.70;45.30
35680;DHT22;21803;53.586;10.040;2022-09-09T08:14:01;25.70;45.30
35680;DHT22;21803;53.586;10.040;2022-09-09T08:16:30;25.70;45.40
35680;DHT22;21803;53.586;10.040;2022-09-09T08:18:56;25.80;45.40
35680;DHT22;21803;53.586;10.040;2022-09-09T08:21:24;25.80;45.50
35680;DHT22;21803;53.586;10.040;2022-09-09T08:23:52;25.70;45.40
35680;DHT22;21803;53.586;10.040;2022-09-09T08:26:33;25.80;45.50
35680;DHT22;21803;53.586;10.040;2022-09-09T08:29:00;25.90;45.50
35680;DHT22;21803;53.586;10.040;2022-09-09T08:31:29;25.70;45.40
35680;DHT22;21803;53.586;10.040;2022-09-09T08:33:56;25.80;45.50
35680;DHT22;21803;53.586;10.040;2022-09-09T08:36:23;25.80;45.50
35680;DHT22;21803;53.586;10.040;2022-09-09T08:38:52;25.80;45.50
35680;DHT22;21803;53.586;10.040;2022-09-09T08:41:37;25.80;45.50
35680;DHT22;21803;53.586;10.040;2022-09-09T08:44:30;25.80;45.50
35680;DHT22;21803;53.586;10.040;2022-09-09T08:50:41;25.80;45.50
35680;DHT22;21803;53.586;10.040;2022-09-09T08:53:00;25.80;45.50
35680;DHT22;21803;53.586;10.040;2022-09-09T08:57:57;25.80;45.60
35680;DHT22;21803;53.586;10.040;2022-09-09T09:00:35;25.80;45.60
35680;DHT22;21803;53.586;10.040;2022-09-09T09:03:14;25.80;45.60
35680;DHT22;21803;53.586;10.040;2022-09-09T09:05:51;25.80;45.60
35680;DHT22;21803;53.586;10.040;2022-09-09T09:08:53;25.70;45.60
35680;DHT22;21803;53.586;10.040;2022-09-09T09:11:21;25.70;45.60
35680;DHT22;21803;53.586;10.040;2022-09-09T09:13:56;25.80;45.70
35680;DHT22;21803;53.586;10.040;2022-09-09T09:16:27;25.70;45.60
35680;DHT22;21803;53.586;10.040;2022-09-09T09:18:54;25.80;45.70
35680;DHT22;21803;53.586;10.040;2022-09-09T09:21:36;25.70;45.60
35680;DHT22;21803;53.586;10.040;2022-09-09T09:24:09;25.70;45.60
35680;DHT22;21803;53.586;10.040;2022-09-09T09:26:40;25.70;45.60
35680;DHT22;21803;53.586;10.040;2022-09-09T09:29:14;25.60;45.60
35680;DHT22;21803;53.586;10.040;2022-09-09T09:31:52;25.80;46.30
35680;DHT22;21803;53.586;10.040;2022-09-09T09:34:22;25.90;45.80
35680;DHT22;21803;53.586;10.040;2022-09-09T09:36:57;25.90;45.70
35680;DHT22;21803;53.586;10.040;2022-09-09T09:39:31;25.80;45.70
35680;DHT22;21803;53.586;10.040;2022-09-09T09:42:10;25.80;45.70
35680;DHT22;21803;53.586;10.040;2022-09-09T09:44:39;25.80;45.70
35680;DHT22;21803;53.586;10.040;2022-09-09T09:47:14;25.80;45.70
35680;DHT22;21803;53.586;10.040;2022-09-09T09:50:00;25.80;45.70
35680;DHT22;21803;53.586;10.040;2022-09-09T09:52:29;25.80;45.70
35680;DHT22;21803;53.586;10.040;2022-09-09T09:54:57;25.80;45.70
35680;DHT22;21803;53.586;10.040;2022-09-09T09:57:26;25.80;45.70
35680;DHT22;21803;53.586;10.040;2022-09-09T10:00:18;25.80;45.70
35680;DHT22;21803;53.586;10.040;2022-09-09T10:02:45;25.80;45.70
35680;DHT22;21803;53.586;10.040;2022-09-09T10:05:22;25.80;45.60
35680;DHT22;21803;53.586;10.040;2022-09-09T10:10:59;25.80;45.60
35680;DHT22;21803;53.586;10.040;2022-09-09T10:13:39;25.80;45.60
35680;DHT22;21803;53.586;10.040;2022-09-09T10:19:16;25.80;45.60
35680;DHT22;21803;53.586;10.040;2022-09-09T10:24:42;25.80;45.60
35680;DHT22;21803;53.586;10.040;2022-09-09T10:36:16;25.80;45.70
35680;DHT22;21803;53.586;10.040;2022-09-09T10:38:46;25.80;45.70
35680;DHT22;21803;53.586;10.040;2022-09-09T10:41:35;25.80;45.70
35680;DHT22;21803;53.586;10.040;2022-09-09T10:46:53;25.80;45.70
35680;DHT22;21803;53.586;10.040;2022-09-09T10:50:28;25.80;45.70
35680;DHT22;21803;53.586;10.040;2022-09-09T10:52:31;25.80;45.70
35680;DHT22;21803;53.586;10.040;2022-09-09T11:00:18;25.80;45.70
35680;DHT22;21803;53.586;10.040;2022-09-09T11:02:56;25.70;45.60
35680;DHT22;21803;53.586;10.040;2022-09-09T11:07:58;25.70;45.60
35680;DHT22;21803;53.586;10.040;2022-09-09T11:10:46;25.80;45.70
35680;DHT22;21803;53.586;10.040;2022-09-09T11:13:26;25.70;45.60
35680;DHT22;21803;53.586;10.040;2022-09-09T11:16:47;25.80;45.70
35680;DHT22;21803;53.586;10.040;2022-09-09T11:18:46;25.80;45.70
35680;DHT22;21803;53.586;10.040;2022-09-09T11:21:28;25.80;45.70
35680;DHT22;21803;53.586;10.040;2022-09-09T11:24:04;25.80;45.70
35680;DHT22;21803;53.586;10.040;2022-09-09T11:26:41;25.80;45.70
35680;DHT22;21803;53.586;10.040;2022-09-09T11:40:30;25.80;45.70
35680;DHT22;21803;53.586;10.040;2022-09-09T11:43:09;25.80;45.70
35680;DHT22;21803;53.586;10.040;2022-09-09T11:45:42;25.80;45.70
35680;DHT22;21803;53.586;10.040;2022-09-09T11:48:25;25.70;45.60
35680;DHT22;21803;53.586;10.040;2022-09-09T11:51:00;25.80;45.70
35680;DHT22;21803;53.586;10.040;2022-09-09T11:53:26;25.80;45.70
35680;DHT22;21803;53.586;10.040;2022-09-09T11:56:05;25.80;45.70
35680;DHT22;21803;53.586;10.040;2022-09-09T11:58:37;25.80;45.70
35680;DHT22;21803;53.586;10.040;2022-09-09T12:01:35;25.80;45.70
35680;DHT22;21803;53.586;10.040;2022-09-09T12:04:17;25.70;45.60
35680;DHT22;21803;53.586;10.040;2022-09-09T12:06:46;25.80;45.70
35680;DHT22;21803;53.586;10.040;2022-09-09T12:11:40;25.80;45.70
35680;DHT22;21803;53.586;10.040;2022-09-09T12:14:21;25.80;45.70
35680;DHT22;21803;53.586;10.040;2022-09-09T12:16:48;25.80;45.70
35680;DHT22;21803;53.586;10.040;2022-09-09T12:19:14;25.80;45.70
35680;DHT22;21803;53.586;10.040;2022-09-09T12:24:58;25.80;45.80
35680;DHT22;21803;53.586;10.040;2022-09-09T12:27:31;25.80;45.80
35680;DHT22;21803;53.586;10.040;2022-09-09T12:30:27;25.80;45.80
35680;DHT22;21803;53.586;10.040;2022-09-09T12:33:08;25.80;45.80
35680;DHT22;21803;53.586;10.040;2022-09-09T12:35:35;25.80;45.80
35680;DHT22;21803;53.586;10.040;2022-09-09T12:38:05;25.80;45.80
35680;DHT22;21803;53.586;10.040;2022-09-09T12:40:34;25.80;45.80
35680;DHT22;21803;53.586;10.040;2022-09-09T12:43:23;25.80;45.80
35680;DHT22;21803;53.586;10.040;2022-09-09T12:45:48;25.80;45.80
35680;DHT22;21803;53.586;10.040;2022-09-09T12:48:21;25.80;45.80
35680;DHT22;21803;53.586;10.040;2022-09-09T12:50:51;25.80;45.80
35680;DHT22;21803;53.586;10.040;2022-09-09T12:53:34;25.80;45.90
35680;DHT22;21803;53.586;10.040;2022-09-09T12:56:05;25.80;45.90
35680;DHT22;21803;53.586;10.040;2022-09-09T12:58:33;25.80;45.90
35680;DHT22;21803;53.586;10.040;2022-09-09T13:01:01;25.80;45.90
35680;DHT22;21803;53.586;10.040;2022-09-09T13:03:30;25.70;45.90
35680;DHT22;21803;53.586;10.040;2022-09-09T13:05:58;25.80;46.00
35680;DHT22;21803;53.586;10.040;2022-09-09T13:08:27;25.80;46.00
35680;DHT22;21803;53.586;10.040;2022-09-09T13:11:01;25.80;46.00
35680;DHT22;21803;53.586;10.040;2022-09-09T13:15:59;25.80;46.00
35680;DHT22;21803;53.586;10.040;2022-09-09T13:18:30;25.80;46.00
35680;DHT22;21803;53.586;10.040;2022-09-09T13:20:57;25.80;46.00
35680;DHT22;21803;53.586;10.040;2022-09-09T13:23:26;25.80;46.10
35680;DHT22;21803;53.586;10.040;2022-09-09T13:26:18;25.80;46.00
35680;DHT22;21803;53.586;10.040;2022-09-09T13:28:47;25.80;46.10
35680;DHT22;21803;53.586;10.040;2022-09-09T13:31:27;25.70;46.00
35680;DHT22;21803;53.586;10.040;2022-09-09T13:33:53;25.60;46.00
35680;DHT22;21803;53.586;10.040;2022-09-09T13:36:31;25.80;46.10
35680;DHT22;21803;53.586;10.040;2022-09-09T13:38:58;25.70;46.00
35680;DHT22;21803;53.586;10.040;2022-09-09T13:41:43;25.70;46.10
35680;DHT22;21803;53.586;10.040;2022-09-09T13:44:29;25.70;46.10
35680;DHT22;21803;53.586;10.040;2022-09-09T13:47:17;25.70;46.10
35680;DHT22;21803;53.586;10.040;2022-09-09T13:49:44;25.80;46.10
35680;DHT22;21803;53.586;10.040;2022-09-09T13:52:16;25.80;46.80
35680;DHT22;21803;53.586;10.040;2022-09-09T13:54:42;25.80;46.20
35680;DHT22;21803;53.586;10.040;2022-09-09T13:57:24;25.70;46.20
35680;DHT22;21803;53.586;10.040;2022-09-09T13:59:51;25.70;46.20
35680;DHT22;21803;53.586;10.040;2022-09-09T14:02:17;25.70;46.20
35680;DHT22;21803;53.586;10.040;2022-09-09T14:04:44;25.70;46.20
35680;DHT22;21803;53.586;10.040;2022-09-09T14:07:15;25.70;46.20
35680;DHT22;21803;53.586;10.040;2022-09-09T14:09:41;25.80;46.30
35680;DHT22;21803;53.586;10.040;2022-09-09T14:12:12;25.70;46.30
35680;DHT22;21803;53.586;10.040;2022-09-09T14:14:39;25.70;46.30
35680;DHT22;21803;53.586;10.040;2022-09-09T14:17:07;25.70;46.40
35680;DHT22;21803;53.586;10.040;2022-09-09T14:19:33;25.70;46.40
35680;DHT22;21803;53.586;10.040;2022-09-09T14:21:59;25.70;46.30
35680;DHT22;21803;53.586;10.040;2022-09-09T14:24:25;25.70;46.40
35680;DHT22;21803;53.586;10.040;2022-09-09T14:26:51;25.70;46.40
35680;DHT22;21803;53.586;10.040;2022-09-09T14:29:17;25.70;46.40
35680;DHT22;21803;53.586;10.040;2022-09-09T14:31:42;25.70;46.40
35680;DHT22;21803;53.586;10.040;2022-09-09T14:34:08;25.70;46.50
35680;DHT22;21803;53.586;10.040;2022-09-09T14:36:35;25.70;46.40
35680;DHT22;21803;53.586;10.040;2022-09-09T14:39:00;25.70;46.50
35680;DHT22;21803;53.586;10.040;2022-09-09T14:41:26;25.70;46.50
35680;DHT22;21803;53.586;10.040;2022-09-09T14:43:51;25.70;46.50
35680;DHT22;21803;53.586;10.040;2022-09-09T14:46:19;25.70;46.50
35680;DHT22;21803;53.586;10.040;2022-09-09T14:48:45;25.60;46.40
35680;DHT22;21803;53.586;10.040;2022-09-09T14:51:24;25.60;46.40
35680;DHT22;21803;53.586;10.040;2022-09-09T14:53:58;25.70;46.50
35680;DHT22;21803;53.586;10.040;2022-09-09T14:56:26;25.70;46.50
35680;DHT22;21803;53.586;10.040;2022-09-09T14:58:54;25.70;46.50
35680;DHT22;21803;53.586;10.040;2022-09-09T15:01:24;25.70;46.50
35680;DHT22;21803;53.586;10.040;2022-09-09T15:03:52;25.60;46.50
35680;DHT22;21803;53.586;10.040;2022-09-09T15:06:19;25.70;46.50
35680;DHT22;21803;53.586;10.040;2022-09-09T15:08:46;25.70;46.50
35680;DHT22;21803;53.586;10.040;2022-09-09T15:11:13;25.60;46.50
35680;DHT22;21803;53.586;10.040;2022-09-09T15:13:40;25.60;46.50
35680;DHT22;21803;53.586;10.040;2022-09-09T15:16:07;25.70;46.50
35680;DHT22;21803;53.586;10.040;2022-09-09T15:18:33;25.80;46.60
35680;DHT22;21803;53.586;10.040;2022-09-09T15:20:59;25.70;46.50
35680;DHT22;21803;53.586;10.040;2022-09-09T15:23:26;25.70;46.50
35680;DHT22;21803;53.586;10.040;2022-09-09T15:25:56;25.80;46.60
35680;DHT22;21803;53.586;10.040;2022-09-09T15:28:22;25.70;46.50
35680;DHT22;21803;53.586;10.040;2022-09-09T15:30:52;25.70;46.50
35680;DHT22;21803;53.586;10.040;2022-09-09T15:33:19;25.70;46.50
35680;DHT22;21803;53.586;10.040;2022-09-09T15:35:45;25.70;46.50
35680;DHT22;21803;53.586;10.040;2022-09-09T15:38:11;25.70;46.50
35680;DHT22;21803;53.586;10.040;2022-09-09T15:40:41;25.80;46.60
35680;DHT22;21803;53.586;10.040;2022-09-09T15:43:08;25.70;46.60
35680;DHT22;21803;53.586;10.040;2022-09-09T15:45:34;25.80;46.70
35680;DHT22;21803;53.586;10.040;2022-09-09T15:48:01;25.70;46.60
35680;DHT22;21803;53.586;10.040;2022-09-09T15:50:27;25.70;46.60
35680;DHT22;21803;53.586;10.040;2022-09-09T15:52:53;25.80;46.70
35680;DHT22;21803;53.586;10.040;2022-09-09T15:55:20;25.70;46.70
35680;DHT22;21803;53.586;10.040;2022-09-09T15:57:46;25.70;46.70
35680;DHT22;21803;53.586;10.040;2022-09-09T16:00:12;25.80;46.70
35680;DHT22;21803;53.586;10.040;2022-09-09T16:02:38;25.70;46.70
35680;DHT22;21803;53.586;10.040;2022-09-09T16:05:05;25.70;46.70
35680;DHT22;21803;53.586;10.040;2022-09-09T16:07:30;25.70;46.70
35680;DHT22;21803;53.586;10.040;2022-09-09T16:09:56;25.70;46.60
35680;DHT22;21803;53.586;10.040;2022-09-09T16:12:21;25.80;46.70
35680;DHT22;21803;53.586;10.040;2022-09-09T16:14:47;25.70;46.60
35680;DHT22;21803;53.586;10.040;2022-09-09T16:17:12;25.70;46.60
35680;DHT22;21803;53.586;10.040;2022-09-09T16:19:39;25.70;46.70
35680;DHT22;21803;53.586;10.040;2022-09-09T16:22:05;25.70;46.60
35680;DHT22;21803;53.586;10.040;2022-09-09T16:24:32;25.70;46.60
35680;DHT22;21803;53.586;10.040;2022-09-09T16:26:58;25.80;46.70
35680;DHT22;21803;53.586;10.040;2022-09-09T16:29:24;25.70;46.60
35680;DHT22;21803;53.586;10.040;2022-09-09T16:31:53;25.70;46.60
35680;DHT22;21803;53.586;10.040;2022-09-09T16:34:19;25.70;46.70
35680;DHT22;21803;53.586;10.040;2022-09-09T16:36:45;25.80;46.70
35680;DHT22;21803;53.586;10.040;2022-09-09T16:39:13;25.70;46.60
35680;DHT22;21803;53.586;10.040;2022-09-09T16:41:41;25.80;46.70
35680;DHT22;21803;53.586;10.040;2022-09-09T16:44:09;25.80;46.70
35680;DHT22;21803;53.586;10.040;2022-09-09T16:46:37;25.70;46.60
35680;DHT22;21803;53.586;10.040;2022-09-09T16:49:06;25.50;46.50
35680;DHT22;21803;53.586;10.040;2022-09-09T16:51:40;25.70;46.60
35680;DHT22;21803;53.586;10.040;2022-09-09T16:54:07;25.80;46.70
35680;DHT22;21803;53.586;10.040;2022-09-09T16:56:38;25.80;46.70
35680;DHT22;21803;53.586;10.040;2022-09-09T16:59:17;25.70;46.60